Pine Point, Maine
Current Conditions -  °F | °C
As of 2:51 AM on Friday 24 Oct 2014 (Local Time) from KPWM Reporting Station
Moderate Rain Moderate Rain  
Wind Chill: 43°   Ceiling: 1100
Heat Index: 49°   Visibility: 5mi
Dew Point: 47°   Wind: 15mph
Humidity: 93%   Direction: 350°N
Pressure: 29.67"   Gusts: NA
Location:  43.5917°N, 70.3693°W
Report Text: KPWM 240651Z AUTO 35013KT 5SM RA BR BKN011 BKN014 OVC024 09/08 A2967 RMK AO2 SLP046 P0007 T00940083
Loading
Personal Weather Stations






























Interactive Weather Map
Tropical Storm Tracking
New forecast layout! Learn more

10-Day Weather Forecast

Advertisements
Track Severe Weather on mobile